Time;durP1;ratioP1;P1;durP2;ratioP2;P2;SDS_P1;SDS_P2;PMS_P1;PMS_P2;Temp;Humidity;BMP_temperature;BMP_pressure;BME280_temperature;BME280_humidity;BME280_pressure;Samples;Min_cycle;Max_cycle;Signal;HPM_P1;HPM_P2
2023/06/23 00:01:17;;;;;;;6.32;2.10;;;;;;;;;;4991021;28;20035;-85
2023/06/23 00:03:45;;;;;;;3.42;1.52;;;;;;;;;;4994188;28;20046;-85
2023/06/23 00:06:11;;;;;;;5.35;1.50;;;;;;;;;;4997022;28;20061;-85
2023/06/23 00:08:40;;;;;;;4.97;2.00;;;;;;;;;;4999790;28;20124;-85
2023/06/23 00:11:07;;;;;;;6.18;1.85;;;;;;;;;;5003587;28;20043;-85
2023/06/23 00:13:34;;;;;;;4.35;1.50;;;;;;;;;;5020906;28;20038;-86
2023/06/23 00:16:04;;;;;;;3.10;1.70;;;;;;;;;;5007299;28;20045;-86
2023/06/23 00:18:37;;;;;;;8.68;1.70;;;;;;;;;;5006846;28;20041;-85
2023/06/23 00:21:07;;;;;;;4.25;1.70;;;;;;;;;;5007236;28;20260;-87
2023/06/23 00:23:34;;;;;;;4.97;1.80;;;;;;;;;;5005984;28;20109;-85
2023/06/23 00:26:00;;;;;;;4.68;1.40;;;;;;;;;;5007018;28;20042;-84
2023/06/23 00:28:26;;;;;;;3.40;1.38;;;;;;;;;;5006085;28;20046;-85
2023/06/23 00:30:52;;;;;;;7.63;1.60;;;;;;;;;;5004271;28;20038;-84
2023/06/23 00:33:18;;;;;;;3.03;1.50;;;;;;;;;;4989507;28;20038;-86
2023/06/23 00:35:46;;;;;;;6.82;1.48;;;;;;;;;;4990683;28;20023;-87
2023/06/23 00:38:13;;;;;;;5.93;1.73;;;;;;;;;;4993848;28;20042;-86
2023/06/23 00:40:39;;;;;;;5.80;1.33;;;;;;;;;;4998550;28;20030;-86
2023/06/23 00:43:04;;;;;;;6.93;1.73;;;;;;;;;;5006409;28;20042;-86
2023/06/23 00:45:30;;;;;;;2.28;1.30;;;;;;;;;;5006311;28;20038;-85
2023/06/23 00:47:56;;;;;;;4.03;1.70;;;;;;;;;;4995727;28;20054;-86
2023/06/23 00:50:24;;;;;;;4.10;1.60;;;;;;;;;;4986350;28;20046;-86
2023/06/23 00:52:51;;;;;;;4.47;1.38;;;;;;;;;;4990955;28;20035;-86
2023/06/23 00:55:27;;;;;;;3.88;1.30;;;;;;;;;;4995298;28;20030;-86
2023/06/23 00:57:56;;;;;;;3.10;1.30;;;;;;;;;;4997160;28;20037;-85
2023/06/23 01:00:23;;;;;;;4.70;1.40;;;;;;;;;;4999899;28;20025;-86
2023/06/23 01:02:53;;;;;;;5.40;1.45;;;;;;;;;;5003471;28;20037;-86
2023/06/23 01:05:24;;;;;;;4.30;1.50;;;;;;;;;;5005363;28;20046;-86
2023/06/23 01:07:57;;;;;;;5.85;1.50;;;;;;;;;;5016424;28;20042;-85
2023/06/23 01:10:37;;;;;;;2.20;1.50;;;;;;;;;;5012026;28;20038;-85
2023/06/23 01:13:51;;;;;;;2.80;1.45;;;;;;;;;;5011926;28;20045;-85
2023/06/23 01:16:19;;;;;;;8.18;1.60;;;;;;;;;;5005357;28;20068;-85
2023/06/23 01:19:12;;;;;;;3.40;1.50;;;;;;;;;;5005009;28;20042;-85
2023/06/23 01:21:48;;;;;;;;;;;;;;;;;;5000197;28;20039;-82
2023/06/23 01:24:20;;;;;;;3.78;1.63;;;;;;;;;;4988792;28;19924;-85
2023/06/23 01:27:00;;;;;;;2.80;1.80;;;;;;;;;;5017889;28;20054;-84
2023/06/23 01:29:29;;;;;;;4.28;1.92;;;;;;;;;;5017348;28;20481;-82
2023/06/23 01:32:00;;;;;;;4.50;1.65;;;;;;;;;;5001071;28;20031;-84
2023/06/23 01:34:37;;;;;;;6.03;1.95;;;;;;;;;;5000534;28;20038;-83
2023/06/23 01:37:10;;;;;;;3.38;1.92;;;;;;;;;;4993751;28;20115;-84
2023/06/23 01:39:39;;;;;;;2.92;1.60;;;;;;;;;;4982945;28;20062;-83
2023/06/23 01:42:09;;;;;;;2.20;1.45;;;;;;;;;;4987155;28;20042;-83
2023/06/23 01:44:38;;;;;;;3.65;1.70;;;;;;;;;;5007297;28;20126;-83
2023/06/23 01:47:10;;;;;;;2.53;1.60;;;;;;;;;;5007235;28;20065;-84
2023/06/23 01:49:37;;;;;;;2.83;1.92;;;;;;;;;;4987621;28;20035;-85
2023/06/23 01:52:06;;;;;;;2.92;1.70;;;;;;;;;;5004480;28;20030;-84
2023/06/23 01:54:36;;;;;;;3.58;1.63;;;;;;;;;;5013772;28;20043;-84
2023/06/23 01:57:02;;;;;;;5.00;1.83;;;;;;;;;;5002550;28;20121;-84
2023/06/23 01:59:28;;;;;;;3.72;1.90;;;;;;;;;;5002631;28;20046;-85
2023/06/23 02:01:55;;;;;;;2.80;1.60;;;;;;;;;;5004581;28;20130;-85
2023/06/23 02:04:22;;;;;;;2.38;1.40;;;;;;;;;;5016490;28;20061;-85
2023/06/23 02:06:50;;;;;;;2.22;1.65;;;;;;;;;;5008636;28;20046;-84
2023/06/23 02:09:23;;;;;;;3.25;1.50;;;;;;;;;;5007627;28;20133;-85
2023/06/23 02:11:51;;;;;;;2.83;1.50;;;;;;;;;;5005059;28;20045;-85
2023/06/23 02:14:18;;;;;;;3.67;1.40;;;;;;;;;;5022858;28;20053;-84
2023/06/23 02:16:45;;;;;;;2.83;1.70;;;;;;;;;;5019087;28;20031;-84
2023/06/23 02:19:12;;;;;;;3.63;1.40;;;;;;;;;;5009307;28;20038;-84
2023/06/23 02:21:39;;;;;;;3.08;1.40;;;;;;;;;;5011162;28;20037;-83
2023/06/23 02:24:06;;;;;;;2.58;1.50;;;;;;;;;;5012560;28;20110;-83
2023/06/23 02:26:36;;;;;;;3.85;1.40;;;;;;;;;;5000697;28;20049;-84
2023/06/23 02:29:04;;;;;;;1.88;1.33;;;;;;;;;;4977329;28;20058;-85
2023/06/23 02:31:30;;;;;;;2.03;1.45;;;;;;;;;;5013084;28;20038;-84
2023/06/23 02:33:57;;;;;;;2.15;1.50;;;;;;;;;;5009494;28;20031;-85
2023/06/23 02:36:25;;;;;;;1.90;1.40;;;;;;;;;;5010720;28;20040;-84
2023/06/23 02:38:54;;;;;;;3.30;1.30;;;;;;;;;;5010298;28;20097;-84
2023/06/23 02:41:22;;;;;;;4.68;1.50;;;;;;;;;;5009412;28;20134;-83
2023/06/23 02:43:51;;;;;;;2.47;1.50;;;;;;;;;;4995880;28;20030;-84
2023/06/23 02:46:22;;;;;;;2.03;1.50;;;;;;;;;;4995090;28;20046;-84
2023/06/23 02:48:51;;;;;;;2.83;1.48;;;;;;;;;;5019655;28;20034;-84
2023/06/23 02:51:21;;;;;;;2.33;1.38;;;;;;;;;;5018250;28;20065;-85
2023/06/23 02:54:17;;;;;;;3.00;1.40;;;;;;;;;;5008911;28;20038;-84
2023/06/23 02:56:44;;;;;;;2.65;1.40;;;;;;;;;;5008276;28;20050;-84
2023/06/23 02:59:14;;;;;;;2.40;1.30;;;;;;;;;;5000265;28;20084;-84
2023/06/23 03:01:45;;;;;;;;;;;;;;;;;;4993264;28;20046;-84
2023/06/23 03:04:11;;;;;;;2.42;1.30;;;;;;;;;;4996497;28;19981;-84
2023/06/23 03:06:37;;;;;;;2.30;1.45;;;;;;;;;;5015030;28;20046;-84
2023/06/23 03:09:03;;;;;;;4.15;1.52;;;;;;;;;;5007881;28;20031;-85
2023/06/23 03:11:30;;;;;;;2.90;1.45;;;;;;;;;;5009581;28;20058;-83
2023/06/23 03:13:56;;;;;;;2.13;1.48;;;;;;;;;;5010060;28;20046;-84
2023/06/23 03:16:39;;;;;;;2.85;1.60;;;;;;;;;;4995968;28;20031;-84
2023/06/23 03:19:14;;;;;;;;;;;;;;;;;;5008516;28;20026;-84
2023/06/23 03:21:43;;;;;;;2.15;1.48;;;;;;;;;;5010194;28;20315;-84
2023/06/23 03:24:13;;;;;;;1.85;1.30;;;;;;;;;;5010118;28;20054;-84
2023/06/23 03:26:45;;;;;;;2.47;1.55;;;;;;;;;;5007126;28;20034;-84
2023/06/23 03:29:11;;;;;;;2.63;1.35;;;;;;;;;;5010220;28;20031;-84
2023/06/23 03:31:42;;;;;;;2.58;1.40;;;;;;;;;;5017987;28;20035;-85
2023/06/23 03:34:08;;;;;;;1.73;1.25;;;;;;;;;;5009107;28;20022;-84
2023/06/23 03:36:38;;;;;;;2.22;1.35;;;;;;;;;;5007870;28;20045;-85
2023/06/23 03:39:10;;;;;;;1.85;1.20;;;;;;;;;;5005025;28;20033;-84
2023/06/23 03:41:38;;;;;;;1.97;1.50;;;;;;;;;;5008074;28;20073;-83
2023/06/23 03:44:22;;;;;;;2.97;1.38;;;;;;;;;;5008099;28;20105;-83
2023/06/23 03:46:54;;;;;;;1.92;1.30;;;;;;;;;;5005541;28;20077;-83
2023/06/23 03:49:26;;;;;;;1.45;1.10;;;;;;;;;;4993333;28;20050;-83
2023/06/23 03:51:55;;;;;;;1.77;1.27;;;;;;;;;;4992450;28;20069;-83
2023/06/23 03:54:22;;;;;;;4.53;1.60;;;;;;;;;;4995011;28;20054;-83
2023/06/23 03:56:51;;;;;;;2.05;1.40;;;;;;;;;;4998406;28;20027;-84
2023/06/23 03:59:19;;;;;;;2.03;1.20;;;;;;;;;;5005181;28;20030;-84
2023/06/23 04:01:47;;;;;;;1.77;1.35;;;;;;;;;;5006789;28;20026;-84
2023/06/23 04:04:15;;;;;;;3.05;1.48;;;;;;;;;;5002325;28;20038;-85
2023/06/23 04:06:45;;;;;;;2.10;1.30;;;;;;;;;;4987130;28;20049;-85
2023/06/23 04:09:13;;;;;;;2.78;1.30;;;;;;;;;;4990594;28;20035;-84
2023/06/23 04:11:39;;;;;;;2.60;1.30;;;;;;;;;;4974374;28;20098;-84
2023/06/23 04:14:06;;;;;;;1.85;1.20;;;;;;;;;;5000929;28;20523;-84
2023/06/23 04:16:36;;;;;;;2.75;1.35;;;;;;;;;;5002557;28;20026;-83
2023/06/23 04:19:04;;;;;;;2.15;1.33;;;;;;;;;;5015652;28;20041;-84
2023/06/23 04:21:31;;;;;;;3.78;1.35;;;;;;;;;;4994668;28;20038;-83
2023/06/23 04:23:58;;;;;;;1.92;1.27;;;;;;;;;;4987098;28;20069;-83
2023/06/23 04:26:26;;;;;;;2.25;1.42;;;;;;;;;;4989427;28;20097;-84
2023/06/23 04:28:53;;;;;;;2.97;1.25;;;;;;;;;;4991916;28;20038;-84
2023/06/23 04:31:20;;;;;;;3.58;1.52;;;;;;;;;;4994613;28;20471;-85
2023/06/23 04:33:46;;;;;;;2.35;1.33;;;;;;;;;;4997129;28;20094;-84
2023/06/23 04:36:16;;;;;;;1.67;1.20;;;;;;;;;;4999390;28;20080;-84
2023/06/23 04:38:50;;;;;;;2.30;1.20;;;;;;;;;;5001825;28;20034;-83
2023/06/23 04:41:19;;;;;;;;;;;;;;;;;;5003961;28;20065;-84
2023/06/23 04:43:49;;;;;;;1.55;1.15;;;;;;;;;;5001920;28;19910;-84
2023/06/23 04:46:19;;;;;;;2.88;1.40;;;;;;;;;;5008217;28;20093;-84
2023/06/23 04:48:53;;;;;;;1.30;1.10;;;;;;;;;;4999765;28;20026;-84
2023/06/23 04:51:22;;;;;;;1.85;1.30;;;;;;;;;;4999590;28;20049;-84
2023/06/23 04:53:53;;;;;;;3.05;1.50;;;;;;;;;;5000729;28;20035;-84
2023/06/23 04:56:23;;;;;;;2.78;1.50;;;;;;;;;;4989383;28;20058;-86
2023/06/23 04:58:53;;;;;;;4.65;1.50;;;;;;;;;;5003647;28;20407;-84
2023/06/23 05:01:20;;;;;;;2.22;1.27;;;;;;;;;;5005830;28;20115;-86
2023/06/23 05:03:48;;;;;;;1.95;1.30;;;;;;;;;;5005899;28;20034;-84
2023/06/23 05:06:17;;;;;;;3.00;1.40;;;;;;;;;;5005988;28;20108;-83
2023/06/23 05:08:45;;;;;;;3.05;1.52;;;;;;;;;;5005868;28;20046;-86
2023/06/23 05:11:12;;;;;;;3.70;1.50;;;;;;;;;;4992718;28;20042;-86
2023/06/23 05:13:39;;;;;;;2.13;1.35;;;;;;;;;;4988695;28;20103;-84
2023/06/23 05:16:10;;;;;;;1.85;1.30;;;;;;;;;;4992999;28;20038;-84
2023/06/23 05:18:36;;;;;;;3.40;1.30;;;;;;;;;;4995697;28;20046;-83
2023/06/23 05:21:04;;;;;;;2.08;1.40;;;;;;;;;;4999547;28;20053;-84
2023/06/23 05:23:35;;;;;;;2.38;1.23;;;;;;;;;;5005607;28;20039;-84
2023/06/23 05:26:03;;;;;;;2.55;1.35;;;;;;;;;;5010118;28;20043;-84
2023/06/23 05:28:32;;;;;;;2.83;1.30;;;;;;;;;;5008190;28;20045;-84
2023/06/23 05:30:59;;;;;;;2.58;1.45;;;;;;;;;;5007223;28;20034;-84
2023/06/23 05:33:25;;;;;;;2.72;1.40;;;;;;;;;;5007429;28;20049;-84
2023/06/23 05:35:55;;;;;;;2.95;1.50;;;;;;;;;;5007862;28;20050;-85
2023/06/23 05:38:24;;;;;;;3.05;1.38;;;;;;;;;;5009813;28;20117;-85
2023/06/23 05:40:49;;;;;;;2.10;1.42;;;;;;;;;;5011083;28;20101;-85
2023/06/23 05:43:15;;;;;;;3.15;1.58;;;;;;;;;;5005141;28;20026;-85
2023/06/23 05:45:41;;;;;;;3.00;1.40;;;;;;;;;;5009534;28;20042;-83
2023/06/23 05:48:15;;;;;;;3.28;1.40;;;;;;;;;;5008517;28;20069;-85
2023/06/23 05:50:42;;;;;;;3.22;1.67;;;;;;;;;;5003663;28;20072;-84
2023/06/23 05:53:11;;;;;;;2.20;1.30;;;;;;;;;;4999659;28;20035;-85
2023/06/23 05:56:05;;;;;;;2.70;1.60;;;;;;;;;;5003009;28;20026;-84
2023/06/23 05:58:32;;;;;;;;;;;;;;;;;;4999332;28;20444;-84
2023/06/23 06:01:02;;;;;;;3.20;1.40;;;;;;;;;;5011266;28;19925;-85
2023/06/23 06:03:35;;;;;;;2.22;1.58;;;;;;;;;;5011928;28;20049;-85
2023/06/23 06:06:02;;;;;;;3.17;1.55;;;;;;;;;;5011265;28;20034;-84
2023/06/23 06:08:28;;;;;;;2.15;1.40;;;;;;;;;;5008718;28;20037;-85
2023/06/23 06:10:56;;;;;;;2.47;1.50;;;;;;;;;;5004527;28;20089;-84
2023/06/23 06:13:23;;;;;;;4.03;1.50;;;;;;;;;;5025585;28;20042;-85
2023/06/23 06:15:51;;;;;;;2.83;1.35;;;;;;;;;;5005768;28;20145;-85
2023/06/23 06:18:18;;;;;;;2.17;1.48;;;;;;;;;;5001899;28;20058;-85
2023/06/23 06:20:46;;;;;;;2.55;1.35;;;;;;;;;;4997771;28;20042;-84
2023/06/23 06:23:13;;;;;;;1.80;1.17;;;;;;;;;;4994992;28;20038;-81
2023/06/23 06:25:41;;;;;;;2.50;1.50;;;;;;;;;;4988679;28;20030;-83
2023/06/23 06:28:10;;;;;;;4.32;1.50;;;;;;;;;;4995384;28;20455;-82
2023/06/23 06:30:39;;;;;;;2.35;1.33;;;;;;;;;;4996988;28;20037;-82
2023/06/23 06:33:07;;;;;;;2.55;1.23;;;;;;;;;;4990244;28;20053;-82
2023/06/23 06:35:34;;;;;;;5.03;1.48;;;;;;;;;;4979834;28;20173;-82
2023/06/23 06:38:01;;;;;;;2.97;1.30;;;;;;;;;;4984808;28;20039;-82
2023/06/23 06:40:28;;;;;;;2.45;1.20;;;;;;;;;;4986433;28;20031;-83
2023/06/23 06:42:53;;;;;;;2.53;1.33;;;;;;;;;;4988609;28;20046;-85
2023/06/23 06:45:19;;;;;;;2.53;1.40;;;;;;;;;;4992755;28;20144;-81
2023/06/23 06:47:47;;;;;;;1.50;1.20;;;;;;;;;;4995391;28;20037;-81
2023/06/23 06:50:17;;;;;;;3.58;1.40;;;;;;;;;;4997590;28;20038;-81
2023/06/23 06:52:45;;;;;;;1.85;1.15;;;;;;;;;;4998257;28;20038;-80
2023/06/23 06:55:18;;;;;;;2.67;1.30;;;;;;;;;;5002552;28;20038;-80
2023/06/23 06:57:45;;;;;;;2.10;1.30;;;;;;;;;;4998445;28;20074;-82
2023/06/23 07:00:11;;;;;;;1.77;1.20;;;;;;;;;;4997372;28;20026;-80
2023/06/23 07:02:39;;;;;;;1.88;1.20;;;;;;;;;;5015657;28;20089;-81
2023/06/23 07:05:05;;;;;;;1.25;0.73;;;;;;;;;;5001612;28;20042;-79
2023/06/23 07:07:31;;;;;;;2.55;1.10;;;;;;;;;;4983069;28;20050;-80
2023/06/23 07:09:56;;;;;;;1.63;0.80;;;;;;;;;;4985136;28;20493;-81
2023/06/23 07:12:23;;;;;;;2.20;1.05;;;;;;;;;;4988926;28;20069;-81
2023/06/23 07:14:49;;;;;;;1.90;0.95;;;;;;;;;;4990028;28;20038;-80
2023/06/23 07:17:14;;;;;;;1.20;0.85;;;;;;;;;;4993756;28;20046;-84
2023/06/23 07:19:40;;;;;;;1.33;0.98;;;;;;;;;;4998235;28;20037;-82
2023/06/23 07:22:07;;;;;;;1.25;1.00;;;;;;;;;;5000706;28;20054;-84
2023/06/23 07:24:32;;;;;;;0.80;0.80;;;;;;;;;;4999911;28;20073;-84
2023/06/23 07:26:58;;;;;;;2.10;1.00;;;;;;;;;;4996291;28;20034;-84
2023/06/23 07:29:23;;;;;;;1.25;0.90;;;;;;;;;;4997835;28;20034;-83
2023/06/23 07:31:49;;;;;;;1.25;1.00;;;;;;;;;;4996988;28;20057;-82
2023/06/23 07:34:14;;;;;;;1.73;1.08;;;;;;;;;;4996292;28;20547;-83
2023/06/23 07:36:40;;;;;;;1.10;0.90;;;;;;;;;;4995694;28;20049;-83
2023/06/23 07:39:05;;;;;;;2.00;0.93;;;;;;;;;;4984669;28;20038;-84
2023/06/23 07:41:31;;;;;;;1.75;1.10;;;;;;;;;;4978961;28;20386;-82
2023/06/23 07:43:56;;;;;;;3.83;1.15;;;;;;;;;;4984990;28;20053;-82
2023/06/23 07:46:22;;;;;;;2.83;1.30;;;;;;;;;;4985326;28;20042;-82
2023/06/23 07:48:47;;;;;;;1.80;1.20;;;;;;;;;;4987747;28;20088;-82
2023/06/23 07:51:13;;;;;;;3.40;1.40;;;;;;;;;;4993398;28;20042;-83
2023/06/23 07:53:38;;;;;;;2.17;1.25;;;;;;;;;;4994764;28;20058;-82
2023/06/23 07:56:04;;;;;;;2.55;1.38;;;;;;;;;;4995955;28;20050;-83
2023/06/23 07:58:29;;;;;;;2.10;1.40;;;;;;;;;;4995118;28;20120;-83
2023/06/23 08:00:55;;;;;;;1.85;1.40;;;;;;;;;;4990410;28;20061;-86
2023/06/23 08:03:20;;;;;;;1.85;1.35;;;;;;;;;;4986055;28;20038;-83
2023/06/23 08:05:46;;;;;;;2.28;1.55;;;;;;;;;;4988787;28;20039;-81
2023/06/23 08:08:18;;;;;;;2.35;1.90;;;;;;;;;;5069582;28;20450;-82
2023/06/23 08:10:44;;;;;;;2.85;1.92;;;;;;;;;;5068975;28;20040;-81
2023/06/23 08:13:09;;;;;;;4.25;2.63;;;;;;;;;;5057045;28;20025;-81
2023/06/23 08:15:35;;;;;;;3.38;2.35;;;;;;;;;;5056254;28;20120;-82
2023/06/23 08:18:00;;;;;;;5.45;2.35;;;;;;;;;;5057936;28;20091;-81
2023/06/23 08:20:26;;;;;;;5.05;2.90;;;;;;;;;;5059265;28;20037;-81
2023/06/23 08:22:51;;;;;;;5.57;2.72;;;;;;;;;;5064419;28;20494;-82
2023/06/23 08:25:17;;;;;;;4.00;2.92;;;;;;;;;;5068210;28;20402;-81
2023/06/23 08:27:43;;;;;;;4.47;3.13;;;;;;;;;;5045295;28;20103;-81
2023/06/23 08:30:08;;;;;;;7.10;3.38;;;;;;;;;;5051564;28;20045;-82
2023/06/23 08:32:34;;;;;;;5.43;3.42;;;;;;;;;;5054661;28;20449;-82
2023/06/23 08:35:00;;;;;;;6.05;3.35;;;;;;;;;;5058784;28;20514;-82
2023/06/23 08:37:25;;;;;;;8.57;3.20;;;;;;;;;;5062550;28;20102;-80
2023/06/23 08:39:51;;;;;;;4.10;2.88;;;;;;;;;;5061276;28;20033;-81
2023/06/23 08:42:17;;;;;;;4.30;2.95;;;;;;;;;;5047232;28;20479;-81
2023/06/23 08:44:45;;;;;;;3.83;3.10;;;;;;;;;;5056962;28;20108;-80
2023/06/23 08:47:13;;;;;;;4.75;2.70;;;;;;;;;;5050160;28;20057;-83
2023/06/23 08:49:40;;;;;;;3.45;2.60;;;;;;;;;;5059383;28;20148;-86
2023/06/23 08:52:06;;;;;;;3.65;2.50;;;;;;;;;;5065747;28;20031;-86
2023/06/23 08:54:33;;;;;;;3.53;2.20;;;;;;;;;;5063586;28;20041;-84
2023/06/23 08:56:58;;;;;;;3.22;2.28;;;;;;;;;;5066736;28;20017;-83
2023/06/23 08:59:24;;;;;;;6.07;2.67;;;;;;;;;;5050780;28;20090;-83
2023/06/23 09:01:50;;;;;;;3.83;2.97;;;;;;;;;;5038426;28;20041;-83
2023/06/23 09:04:16;;;;;;;4.38;3.40;;;;;;;;;;5052942;28;20017;-83
2023/06/23 09:06:42;;;;;;;4.10;3.10;;;;;;;;;;5057572;28;20576;-84
2023/06/23 09:09:07;;;;;;;8.23;3.90;;;;;;;;;;5060927;28;20041;-82
2023/06/23 09:11:33;;;;;;;5.35;4.03;;;;;;;;;;5062865;28;20481;-82
2023/06/23 09:14:00;;;;;;;5.85;3.90;;;;;;;;;;5068118;28;20086;-83
2023/06/23 09:16:27;;;;;;;6.05;4.30;;;;;;;;;;5069907;28;20028;-85
2023/06/23 09:18:52;;;;;;;5.53;4.18;;;;;;;;;;5038700;28;20281;-83
2023/06/23 09:21:19;;;;;;;6.85;4.65;;;;;;;;;;5029960;28;20078;-84
2023/06/23 09:24:03;;;;;;;5.60;4.30;;;;;;;;;;5039898;28;20034;-84
2023/06/23 09:26:29;;;;;;;6.88;4.45;;;;;;;;;;5042944;28;20037;-83
2023/06/23 09:29:20;;;;;;;6.32;4.28;;;;;;;;;;5053385;28;20045;-84
2023/06/23 09:31:47;;;;;;;5.88;4.38;;;;;;;;;;5045228;28;20038;-83
2023/06/23 09:34:27;;;;;;;6.32;4.20;;;;;;;;;;5030873;28;20030;-84
2023/06/23 09:37:04;;;;;;;7.93;4.47;;;;;;;;;;5026681;28;20030;-84
2023/06/23 09:39:33;;;;;;;5.95;3.90;;;;;;;;;;5030991;28;20040;-84
2023/06/23 09:41:58;;;;;;;6.10;3.92;;;;;;;;;;5034808;28;20084;-84
2023/06/23 09:44:35;;;;;;;7.78;4.00;;;;;;;;;;5048297;28;20037;-84
2023/06/23 09:47:02;;;;;;;4.93;3.90;;;;;;;;;;5041757;28;20025;-84
2023/06/23 09:49:36;;;;;;;4.80;3.50;;;;;;;;;;5045486;28;20048;-82
2023/06/23 09:52:01;;;;;;;6.05;3.45;;;;;;;;;;5024718;28;20056;-81
2023/06/23 09:54:39;;;;;;;6.28;3.88;;;;;;;;;;5034691;28;20041;-83
2023/06/23 09:57:23;;;;;;;6.68;4.25;;;;;;;;;;5038118;28;20052;-82
2023/06/23 09:59:49;;;;;;;;;;;;;;;;;;5054160;28;20033;-81
2023/06/23 10:02:23;;;;;;;5.63;4.20;;;;;;;;;;5059362;28;19916;-83
2023/06/23 10:04:50;;;;;;;8.73;4.95;;;;;;;;;;5060554;28;20037;-84
2023/06/23 10:07:19;;;;;;;5.95;4.10;;;;;;;;;;5056620;28;20041;-84
2023/06/23 10:09:53;;;;;;;7.25;3.88;;;;;;;;;;5046706;28;20048;-84
2023/06/23 10:12:23;;;;;;;5.45;4.07;;;;;;;;;;5055407;28;20455;-84
2023/06/23 10:14:50;;;;;;;7.78;4.20;;;;;;;;;;5057550;28;20045;-84
2023/06/23 10:17:16;;;;;;;4.50;3.47;;;;;;;;;;5060225;28;20433;-84
2023/06/23 10:19:46;;;;;;;6.72;3.78;;;;;;;;;;5065121;28;20045;-84
2023/06/23 10:22:19;;;;;;;6.60;4.03;;;;;;;;;;5067488;28;20600;-85
2023/06/23 10:24:47;;;;;;;5.55;4.00;;;;;;;;;;5031357;28;20490;-84
2023/06/23 10:27:26;;;;;;;6.90;4.10;;;;;;;;;;5052394;28;20218;-84
2023/06/23 10:29:54;;;;;;;7.30;4.40;;;;;;;;;;5055218;28;20108;-84
2023/06/23 10:32:28;;;;;;;7.35;4.70;;;;;;;;;;5057972;28;20048;-86
2023/06/23 10:35:06;;;;;;;6.28;4.68;;;;;;;;;;5056903;28;20048;-84
2023/06/23 10:37:32;;;;;;;7.10;4.80;;;;;;;;;;5029656;28;20034;-84
2023/06/23 10:40:02;;;;;;;7.53;4.68;;;;;;;;;;5046579;28;20041;-83
2023/06/23 10:42:30;;;;;;;10.48;5.22;;;;;;;;;;5049569;28;20038;-84
2023/06/23 10:44:58;;;;;;;7.65;5.00;;;;;;;;;;5051031;28;20029;-84
2023/06/23 10:47:24;;;;;;;6.57;4.78;;;;;;;;;;5053839;28;20094;-84
2023/06/23 10:49:52;;;;;;;7.25;4.40;;;;;;;;;;5058556;28;20083;-84
2023/06/23 10:52:17;;;;;;;6.97;4.82;;;;;;;;;;5062408;28;20040;-84
2023/06/23 10:54:43;;;;;;;6.55;5.03;;;;;;;;;;5066147;28;20033;-84
2023/06/23 10:57:10;;;;;;;7.15;4.88;;;;;;;;;;5051568;28;20036;-84
2023/06/23 10:59:41;;;;;;;8.10;4.70;;;;;;;;;;5051096;28;20047;-85
2023/06/23 11:02:12;;;;;;;6.35;4.50;;;;;;;;;;5054698;28;20059;-83
2023/06/23 11:04:49;;;;;;;8.05;4.80;;;;;;;;;;5056575;28;20090;-83
2023/06/23 11:07:14;;;;;;;8.13;4.70;;;;;;;;;;5057828;28;20491;-84
2023/06/23 11:09:47;;;;;;;6.85;4.70;;;;;;;;;;5061923;28;20063;-85
2023/06/23 11:12:42;;;;;;;6.68;4.80;;;;;;;;;;5037909;28;20037;-84
2023/06/23 11:15:20;;;;;;;6.93;4.63;;;;;;;;;;5047352;28;20037;-84
2023/06/23 11:17:46;;;;;;;5.90;4.50;;;;;;;;;;5049814;28;20067;-84
2023/06/23 11:20:24;;;;;;;6.78;4.57;;;;;;;;;;5055053;28;20029;-84
2023/06/23 11:23:06;;;;;;;6.55;4.80;;;;;;;;;;5057453;28;20041;-85
2023/06/23 11:25:44;;;;;;;6.35;4.55;;;;;;;;;;5061675;28;20034;-84
2023/06/23 11:28:29;;;;;;;6.03;4.30;;;;;;;;;;5050604;28;20051;-84
2023/06/23 11:31:13;;;;;;;6.00;4.30;;;;;;;;;;5038026;28;20071;-81
2023/06/23 11:33:44;;;;;;;6.97;4.72;;;;;;;;;;5042617;28;20033;-82
2023/06/23 11:36:13;;;;;;;7.25;5.03;;;;;;;;;;5040673;28;20533;-82
2023/06/23 11:38:40;;;;;;;6.22;4.45;;;;;;;;;;5041441;28;20569;-83
2023/06/23 11:41:06;;;;;;;6.75;4.35;;;;;;;;;;5048861;28;20033;-83
2023/06/23 11:43:39;;;;;;;7.70;4.80;;;;;;;;;;5051829;28;20096;-83
2023/06/23 11:46:11;;;;;;;6.47;4.68;;;;;;;;;;5027501;28;20411;-82
2023/06/23 11:48:37;;;;;;;6.88;5.00;;;;;;;;;;5038277;28;20053;-82
2023/06/23 11:51:06;;;;;;;8.60;4.80;;;;;;;;;;5040943;28;20052;-83
2023/06/23 11:53:32;;;;;;;7.00;4.68;;;;;;;;;;5042901;28;20047;-83
2023/06/23 11:55:58;;;;;;;7.53;5.10;;;;;;;;;;5046982;28;20044;-83
2023/06/23 11:58:28;;;;;;;7.90;5.00;;;;;;;;;;5050888;28;20037;-83
2023/06/23 12:00:54;;;;;;;6.90;4.82;;;;;;;;;;5031239;28;20045;-83
2023/06/23 12:03:19;;;;;;;9.23;5.28;;;;;;;;;;5036326;28;20049;-83
2023/06/23 12:05:46;;;;;;;6.05;5.05;;;;;;;;;;5038686;28;20037;-83
2023/06/23 12:08:11;;;;;;;6.90;5.63;;;;;;;;;;5042319;28;20073;-83
2023/06/23 12:10:41;;;;;;;8.27;6.18;;;;;;;;;;5044381;28;20064;-83
2023/06/23 12:13:10;;;;;;;8.57;6.03;;;;;;;;;;5046437;28;20112;-83
2023/06/23 12:15:40;;;;;;;6.90;5.30;;;;;;;;;;5046654;28;20514;-83
2023/06/23 12:18:07;;;;;;;8.25;5.30;;;;;;;;;;5039647;28;20034;-83
2023/06/23 12:20:34;;;;;;;9.10;6.18;;;;;;;;;;5016941;28;20132;-82
2023/06/23 12:23:05;;;;;;;7.22;5.60;;;;;;;;;;5037938;28;20048;-83
2023/06/23 12:25:37;;;;;;;7.43;5.30;;;;;;;;;;5043735;28;20032;-83
2023/06/23 12:28:11;;;;;;;8.70;5.80;;;;;;;;;;5046204;28;20120;-83
2023/06/23 12:30:41;;;;;;;8.18;5.70;;;;;;;;;;5044633;28;20041;-83
2023/06/23 12:33:23;;;;;;;8.93;5.85;;;;;;;;;;5052678;28;20036;-83
2023/06/23 12:36:05;;;;;;;8.23;5.07;;;;;;;;;;5019797;28;20596;-83
2023/06/23 12:38:35;;;;;;;7.75;5.63;;;;;;;;;;5036575;28;20037;-83
2023/06/23 12:41:17;;;;;;;7.18;5.30;;;;;;;;;;5042145;28;20041;-82
2023/06/23 12:43:42;;;;;;;6.70;5.20;;;;;;;;;;5043437;28;20115;-82
2023/06/23 12:46:11;;;;;;;7.50;5.65;;;;;;;;;;5046565;28;20107;-81
2023/06/23 12:48:40;;;;;;;6.93;5.07;;;;;;;;;;5050602;28;20368;-83
2023/06/23 12:51:06;;;;;;;7.43;5.07;;;;;;;;;;5036481;28;20041;-83
2023/06/23 12:53:32;;;;;;;7.07;5.10;;;;;;;;;;5035210;28;20042;-82
2023/06/23 12:55:58;;;;;;;8.65;5.35;;;;;;;;;;5043139;28;20139;-81
2023/06/23 12:58:24;;;;;;;8.27;4.97;;;;;;;;;;5048336;28;20053;-83
2023/06/23 13:00:49;;;;;;;7.40;5.43;;;;;;;;;;5049819;28;20041;-82
2023/06/23 13:03:15;;;;;;;8.25;5.50;;;;;;;;;;5052072;28;20028;-82
2023/06/23 13:05:41;;;;;;;6.15;5.00;;;;;;;;;;5037742;28;20466;-83
2023/06/23 13:08:08;;;;;;;6.10;4.95;;;;;;;;;;5032243;28;20036;-83
2023/06/23 13:10:34;;;;;;;6.80;5.03;;;;;;;;;;5039961;28;20060;-83
2023/06/23 13:13:00;;;;;;;6.20;4.93;;;;;;;;;;5041764;28;20033;-82
2023/06/23 13:15:27;;;;;;;7.25;4.90;;;;;;;;;;5045206;28;20079;-82
2023/06/23 13:17:53;;;;;;;7.18;5.22;;;;;;;;;;5048685;28;20040;-82
2023/06/23 13:20:18;;;;;;;6.55;4.90;;;;;;;;;;5050296;28;20044;-83
2023/06/23 13:22:43;;;;;;;16.67;4.70;;;;;;;;;;5060114;28;20033;-83
2023/06/23 13:25:09;;;;;;;8.70;5.50;;;;;;;;;;5027799;28;20041;-82
2023/06/23 13:27:35;;;;;;;6.60;4.60;;;;;;;;;;5048259;28;20029;-83
2023/06/23 13:30:00;;;;;;;8.15;5.50;;;;;;;;;;5047970;28;20044;-82
2023/06/23 13:32:26;;;;;;;6.47;4.72;;;;;;;;;;5052342;28;20047;-83
2023/06/23 13:34:51;;;;;;;7.20;4.85;;;;;;;;;;5055213;28;20066;-82
2023/06/23 13:37:17;;;;;;;9.48;4.97;;;;;;;;;;5045444;28;20026;-82
2023/06/23 13:39:43;;;;;;;6.82;4.80;;;;;;;;;;5041335;28;20041;-83
2023/06/23 13:42:08;;;;;;;9.32;4.72;;;;;;;;;;5044358;28;20045;-83
2023/06/23 13:44:34;;;;;;;6.25;4.30;;;;;;;;;;5043857;28;20029;-83
2023/06/23 13:47:00;;;;;;;6.38;4.55;;;;;;;;;;5036514;28;20025;-85
2023/06/23 13:49:25;;;;;;;5.90;4.70;;;;;;;;;;5047885;28;20469;-85
2023/06/23 13:51:51;;;;;;;5.88;4.72;;;;;;;;;;5057655;28;20104;-88
2023/06/23 13:54:17;;;;;;;8.10;4.32;;;;;;;;;;5041634;28;20037;-88
2023/06/23 13:56:43;;;;;;;6.43;4.55;;;;;;;;;;5054976;28;20160;-88
2023/06/23 13:59:09;;;;;;;8.27;4.80;;;;;;;;;;5044775;28;20037;-88
2023/06/23 14:01:34;;;;;;;8.48;4.70;;;;;;;;;;5047685;28;20047;-87
2023/06/23 14:04:00;;;;;;;6.47;4.28;;;;;;;;;;5051479;28;20029;-87
2023/06/23 14:06:25;;;;;;;6.53;4.57;;;;;;;;;;5057244;28;20029;-87
2023/06/23 14:08:51;;;;;;;7.05;5.00;;;;;;;;;;5060944;28;20044;-88
2023/06/23 14:11:17;;;;;;;5.38;4.40;;;;;;;;;;5063718;28;20043;-87
2023/06/23 14:13:43;;;;;;;6.18;4.55;;;;;;;;;;5047994;28;20133;-88
2023/06/23 14:16:12;;;;;;;6.28;4.63;;;;;;;;;;5044426;28;20037;-87
2023/06/23 14:18:38;;;;;;;6.07;4.90;;;;;;;;;;5051344;28;20037;-87
2023/06/23 14:21:03;;;;;;;10.27;4.80;;;;;;;;;;5050608;28;20037;-90
2023/06/23 14:23:29;;;;;;;6.97;4.97;;;;;;;;;;5036620;28;20041;-87
2023/06/23 14:25:55;;;;;;;10.18;4.63;;;;;;;;;;5042566;28;20037;-86
2023/06/23 14:28:20;;;;;;;7.13;4.90;;;;;;;;;;5053191;28;20044;-87
2023/06/23 14:30:46;;;;;;;6.90;4.93;;;;;;;;;;5037821;28;20045;-87
2023/06/23 14:33:11;;;;;;;7.35;4.70;;;;;;;;;;5039148;28;20049;-87
2023/06/23 14:35:37;;;;;;;8.40;5.00;;;;;;;;;;5044209;28;20044;-88
2023/06/23 14:38:05;;;;;;;8.18;4.60;;;;;;;;;;5045191;28;20111;-86
2023/06/23 14:40:34;;;;;;;6.53;4.75;;;;;;;;;;5042137;28;20088;-87
2023/06/23 14:43:00;;;;;;;9.02;4.50;;;;;;;;;;5033038;28;20049;-86
2023/06/23 14:45:34;;;;;;;7.07;4.50;;;;;;;;;;5033004;28;20041;-87
2023/06/23 14:48:00;;;;;;;7.78;4.40;;;;;;;;;;5036242;28;20037;-87
2023/06/23 14:50:25;;;;;;;5.82;4.40;;;;;;;;;;5037236;28;20033;-85
2023/06/23 14:52:51;;;;;;;6.60;4.70;;;;;;;;;;5034465;28;20380;-85
2023/06/23 14:55:17;;;;;;;7.00;4.65;;;;;;;;;;5024634;28;20064;-85